createdAt,value
2022-09-24T00:00:59.304Z,6.50
2022-09-24T00:03:35.583Z,6.97
2022-09-24T00:06:04.533Z,7.13
2022-09-24T00:09:17.311Z,7.05
2022-09-24T00:11:58.870Z,6.68
2022-09-24T00:14:38.562Z,6.88
2022-09-24T00:17:07.779Z,7.43
2022-09-24T00:19:35.850Z,7.18
2022-09-24T00:22:02.794Z,6.18
2022-09-24T00:24:48.109Z,7.43
2022-09-24T00:27:19.763Z,6.82
2022-09-24T00:29:46.672Z,7.47
2022-09-24T00:32:23.006Z,7.90
2022-09-24T00:34:52.403Z,6.95
2022-09-24T00:37:28.875Z,6.53
2022-09-24T00:39:55.693Z,6.23
2022-09-24T00:44:56.504Z,7.65
2022-09-24T00:47:41.485Z,6.88
2022-09-24T00:55:07.988Z,6.63
2022-09-24T00:57:35.597Z,7.38
2022-09-24T01:00:02.537Z,7.47
2022-09-24T01:02:29.316Z,6.78
2022-09-24T01:07:23.748Z,7.05
2022-09-24T01:09:50.270Z,7.55
2022-09-24T01:12:31.793Z,6.97
2022-09-24T01:15:05.944Z,7.38
2022-09-24T01:17:42.357Z,7.45
2022-09-24T01:20:21.842Z,7.47
2022-09-24T01:22:51.283Z,6.90
2022-09-24T01:25:38.056Z,7.65
2022-09-24T01:28:35.970Z,7.50
2022-09-24T01:31:15.041Z,6.07
2022-09-24T01:33:44.749Z,6.22
2022-09-24T01:36:13.062Z,6.70
2022-09-24T01:38:47.230Z,6.63
2022-09-24T01:41:16.399Z,6.93
2022-09-24T01:43:43.857Z,6.43
2022-09-24T01:46:13.088Z,7.07
2022-09-24T01:48:40.362Z,6.65
2022-09-24T01:51:28.723Z,7.05
2022-09-24T01:54:07.389Z,6.45
2022-09-24T01:56:45.005Z,6.57
2022-09-24T01:59:19.731Z,6.60
2022-09-24T02:01:50.574Z,6.53
2022-09-24T02:04:21.282Z,6.63
2022-09-24T02:07:02.183Z,6.70
2022-09-24T02:09:30.227Z,6.10
2022-09-24T02:12:10.921Z,7.07
2022-09-24T02:14:54.623Z,6.07
2022-09-24T02:17:24.378Z,6.88
2022-09-24T02:19:51.058Z,6.03
2022-09-24T02:22:18.365Z,6.32
2022-09-24T02:24:50.439Z,5.55
2022-09-24T02:27:18.820Z,6.40
2022-09-24T02:29:46.664Z,6.70
2022-09-24T02:32:19.765Z,6.15
2022-09-24T02:34:52.522Z,7.10
2022-09-24T02:37:22.640Z,6.70
2022-09-24T02:39:49.911Z,6.30
2022-09-24T02:42:19.418Z,6.28
2022-09-24T02:44:49.768Z,6.97
2022-09-24T02:47:16.363Z,7.00
2022-09-24T02:49:43.114Z,7.88
2022-09-24T02:54:39.248Z,8.77
2022-09-24T02:57:06.002Z,9.10
2022-09-24T03:01:59.303Z,9.70
2022-09-24T03:06:55.097Z,8.05
2022-09-24T03:09:21.770Z,8.95
2022-09-24T03:11:51.639Z,7.57
2022-09-24T03:14:18.286Z,8.60
2022-09-24T03:16:44.964Z,8.43
2022-09-24T03:19:11.561Z,8.98
2022-09-24T03:21:41.004Z,8.30
2022-09-24T03:24:07.616Z,7.00
2022-09-24T03:26:34.254Z,7.78
2022-09-24T03:29:00.938Z,8.05
2022-09-24T03:31:30.516Z,8.77
2022-09-24T03:33:57.630Z,7.93
2022-09-24T03:36:28.543Z,7.80
2022-09-24T03:38:56.925Z,7.80
2022-09-24T03:41:25.502Z,7.57
2022-09-24T03:43:52.125Z,8.10
2022-09-24T03:46:19.484Z,8.45
2022-09-24T03:48:47.571Z,7.88
2022-09-24T03:51:18.802Z,8.25
2022-09-24T03:53:46.739Z,8.07
2022-09-24T03:56:13.835Z,7.47
2022-09-24T03:58:40.814Z,7.97
2022-09-24T04:01:09.484Z,7.18
2022-09-24T04:03:36.466Z,6.82
2022-09-24T04:06:04.092Z,7.25
2022-09-24T04:08:33.595Z,7.22
2022-09-24T04:11:00.293Z,7.82
2022-09-24T04:13:26.993Z,8.75
2022-09-24T04:18:21.856Z,7.05
2022-09-24T04:20:48.543Z,7.45
2022-09-24T04:23:15.643Z,7.18
2022-09-24T04:25:42.191Z,7.28
2022-09-24T04:28:09.838Z,7.43
2022-09-24T04:30:38.247Z,8.23
2022-09-24T04:33:05.480Z,6.97
2022-09-24T04:35:35.550Z,6.70
2022-09-24T04:38:03.796Z,6.43
2022-09-24T04:40:31.547Z,7.47
2022-09-24T04:42:58.369Z,6.93
2022-09-24T04:47:57.477Z,6.97
2022-09-24T04:50:26.552Z,7.50
2022-09-24T04:52:54.336Z,6.88
2022-09-24T04:55:24.044Z,7.18
2022-09-24T04:57:51.193Z,7.35
2022-09-24T05:00:21.031Z,6.80
2022-09-24T05:02:48.310Z,7.43
2022-09-24T05:05:15.224Z,6.97
2022-09-24T05:07:44.689Z,7.18
2022-09-24T05:10:11.279Z,6.95
2022-09-24T05:12:40.440Z,7.72
2022-09-24T05:15:07.624Z,6.80
2022-09-24T05:17:37.880Z,7.60
2022-09-24T05:20:37.278Z,6.47
2022-09-24T05:39:13.639Z,7.15
2022-09-24T05:41:40.993Z,6.50
2022-09-24T05:44:07.457Z,7.50
2022-09-24T05:46:34.139Z,7.35
2022-09-24T05:51:33.773Z,7.63
2022-09-24T05:54:00.475Z,6.95
2022-09-24T05:58:53.620Z,6.75
2022-09-24T06:05:00.010Z,7.10
2022-09-24T06:07:47.078Z,7.22
2022-09-24T06:47:16.328Z,7.95
2022-09-24T06:49:45.051Z,7.97
2022-09-24T06:52:14.702Z,7.30
2022-09-24T06:54:43.991Z,7.63
2022-09-24T06:57:11.370Z,8.27
2022-09-24T06:59:37.936Z,7.90
2022-09-24T07:02:08.311Z,7.65
2022-09-24T07:40:05.642Z,9.63
2022-09-24T07:48:49.614Z,9.13
2022-09-24T07:51:28.661Z,8.43
2022-09-24T08:02:25.405Z,8.07
2022-09-24T08:09:01.696Z,8.02
2022-09-24T09:00:50.213Z,7.35
2022-09-24T09:15:58.889Z,6.90
2022-09-24T09:22:48.258Z,6.95
2022-09-24T09:25:31.955Z,6.50
2022-09-24T09:28:23.205Z,6.30
2022-09-24T09:31:16.229Z,7.75
2022-09-24T09:49:42.385Z,6.00
2022-09-24T09:52:21.412Z,5.47
2022-09-24T09:58:53.613Z,5.82
2022-09-24T10:01:34.091Z,6.05
2022-09-24T10:51:03.115Z,5.55
2022-09-24T11:01:14.553Z,5.05
2022-09-24T11:35:08.235Z,5.35
2022-09-24T11:49:27.615Z,5.13
2022-09-24T11:53:12.366Z,6.15
2022-09-24T11:56:14.029Z,5.05
2022-09-24T11:59:03.270Z,4.72
2022-09-24T12:01:48.383Z,6.15
2022-09-24T12:04:48.098Z,5.28
2022-09-24T12:07:24.768Z,5.93
2022-09-24T12:10:04.553Z,5.10
2022-09-24T12:12:38.124Z,4.45
2022-09-24T12:15:09.599Z,15.50
2022-09-24T12:22:00.824Z,9.18
2022-09-24T12:58:53.495Z,5.50
2022-09-24T13:01:36.210Z,5.45
2022-09-24T13:04:25.517Z,5.10
2022-09-24T13:07:00.974Z,4.75
2022-09-24T13:09:39.282Z,5.30
2022-09-24T13:12:22.851Z,4.57
2022-09-24T13:15:06.864Z,5.05
2022-09-24T13:17:35.766Z,5.75
2022-09-24T13:20:08.446Z,4.53
2022-09-24T13:22:36.958Z,4.88
2022-09-24T13:25:12.691Z,4.50
2022-09-24T13:31:18.085Z,4.32
2022-09-24T13:33:48.288Z,3.90
2022-09-24T13:36:27.396Z,4.18
2022-09-24T13:39:21.081Z,4.82
2022-09-24T13:42:17.736Z,5.35
2022-09-24T13:44:50.830Z,4.47
2022-09-24T13:47:31.770Z,4.82
2022-09-24T13:50:16.531Z,4.00
2022-09-24T13:52:47.490Z,4.15
2022-09-24T13:55:26.102Z,4.22
2022-09-24T13:58:05.442Z,4.45
2022-09-24T14:00:32.553Z,4.50
2022-09-24T14:03:26.562Z,4.72
2022-09-24T14:05:53.351Z,3.92
2022-09-24T14:10:51.583Z,4.43
2022-09-24T14:13:23.272Z,4.05
2022-09-24T14:15:56.687Z,4.60
2022-09-24T14:18:25.333Z,4.47
2022-09-24T14:21:04.448Z,4.97
2022-09-24T14:23:42.446Z,3.90
2022-09-24T14:26:23.141Z,4.13
2022-09-24T14:28:50.285Z,3.67
2022-09-24T14:31:47.831Z,4.60
2022-09-24T14:34:42.988Z,4.03
2022-09-24T14:37:12.324Z,3.55
2022-09-24T14:39:55.409Z,4.60
2022-09-24T14:42:31.727Z,4.45
2022-09-24T14:45:00.257Z,4.03
2022-09-24T14:47:31.811Z,3.90
2022-09-24T14:50:04.260Z,3.60
2022-09-24T14:52:39.691Z,4.10
2022-09-24T14:55:22.683Z,3.50
2022-09-24T14:57:57.611Z,3.50
2022-09-24T15:00:37.877Z,3.60
2022-09-24T15:03:12.530Z,3.63
2022-09-24T15:05:39.913Z,3.50
2022-09-24T15:08:31.597Z,3.30
2022-09-24T15:11:02.161Z,3.35
2022-09-24T15:13:31.136Z,3.15
2022-09-24T15:16:05.909Z,3.17
2022-09-24T15:18:38.120Z,2.80
2022-09-24T15:21:08.350Z,3.58
2022-09-24T15:23:35.058Z,3.72
2022-09-24T15:26:03.813Z,4.25
2022-09-24T15:28:34.349Z,4.88
2022-09-24T15:31:00.928Z,4.85
2022-09-24T15:36:34.468Z,4.97
2022-09-24T15:50:37.605Z,7.60
2022-09-24T16:07:40.253Z,7.25
2022-09-24T16:10:07.853Z,7.32
2022-09-24T16:12:34.730Z,7.70
2022-09-24T16:15:01.574Z,7.45
2022-09-24T16:19:56.242Z,8.02
2022-09-24T16:22:26.635Z,7.63
2022-09-24T16:24:54.474Z,8.52
2022-09-24T16:27:23.068Z,7.75
2022-09-24T16:33:25.436Z,10.65
2022-09-24T16:35:55.227Z,8.77
2022-09-24T16:41:23.533Z,12.52
2022-09-24T16:43:58.343Z,11.77
2022-09-24T17:03:07.027Z,13.48
2022-09-24T17:15:24.575Z,12.98
2022-09-24T17:26:31.166Z,13.40
2022-09-24T17:29:30.401Z,14.10
2022-09-24T17:43:27.244Z,18.08
2022-09-24T17:46:13.941Z,17.75
2022-09-24T17:48:47.553Z,17.20
2022-09-24T17:54:59.518Z,16.80
2022-09-24T18:02:32.140Z,16.15
2022-09-24T18:23:08.277Z,19.83
2022-09-24T18:25:40.781Z,18.92
2022-09-24T18:35:18.500Z,16.73
